createdAt,value
2023-07-20T00:00:52.639Z,1.00
2023-07-20T00:01:56.698Z,1.00
2023-07-20T00:03:00.189Z,0.50
2023-07-20T00:04:03.921Z,0.43
2023-07-20T00:05:07.659Z,0.50
2023-07-20T00:06:11.353Z,0.57
2023-07-20T00:07:14.978Z,0.50
2023-07-20T00:08:18.742Z,0.57
2023-07-20T00:09:22.622Z,0.00
2023-07-20T00:10:26.702Z,0.00
2023-07-20T00:11:30.400Z,0.14
2023-07-20T00:12:34.193Z,0.00
2023-07-20T00:13:37.988Z,0.00
2023-07-20T00:14:41.628Z,1.00
2023-07-20T00:15:45.095Z,0.43
2023-07-20T00:16:48.807Z,0.57
2023-07-20T00:17:52.233Z,0.25
2023-07-20T00:18:55.929Z,0.00
2023-07-20T00:19:59.662Z,0.00
2023-07-20T00:21:03.440Z,0.00
2023-07-20T00:22:07.132Z,0.43
2023-07-20T00:23:10.967Z,0.43
2023-07-20T00:24:14.625Z,0.75
2023-07-20T00:25:18.624Z,0.71
2023-07-20T00:26:22.466Z,0.50
2023-07-20T00:27:26.507Z,0.00
2023-07-20T00:28:30.098Z,0.00
2023-07-20T00:29:33.800Z,0.00
2023-07-20T00:30:37.387Z,0.00
2023-07-20T00:31:41.213Z,0.00
2023-07-20T00:32:44.910Z,0.00
2023-07-20T00:33:48.553Z,0.00
2023-07-20T00:34:52.391Z,0.00
2023-07-20T00:35:56.082Z,0.00
2023-07-20T00:36:59.871Z,0.00
2023-07-20T00:38:03.672Z,0.00
2023-07-20T00:39:07.375Z,0.00
2023-07-20T00:40:11.269Z,0.00
2023-07-20T00:41:14.948Z,0.00
2023-07-20T00:42:19.421Z,0.00
2023-07-20T00:43:22.893Z,0.00
2023-07-20T00:44:26.338Z,0.00
2023-07-20T00:45:29.825Z,0.00
2023-07-20T00:46:33.387Z,0.00
2023-07-20T00:47:36.947Z,0.00
2023-07-20T00:48:40.518Z,0.00
2023-07-20T00:49:44.091Z,0.00
2023-07-20T00:50:47.803Z,0.00
2023-07-20T00:51:51.541Z,0.00
2023-07-20T00:52:55.085Z,0.00
2023-07-20T00:53:58.673Z,0.00
2023-07-20T00:55:02.066Z,0.00
2023-07-20T00:56:05.541Z,0.00
2023-07-20T00:57:08.843Z,0.00
2023-07-20T00:58:12.224Z,0.00
2023-07-20T00:59:15.516Z,0.00
2023-07-20T01:00:18.806Z,0.00
2023-07-20T01:01:22.186Z,0.00
2023-07-20T01:02:25.670Z,0.00
2023-07-20T01:03:29.106Z,0.00
2023-07-20T01:04:32.430Z,0.00
2023-07-20T01:05:35.922Z,0.00
2023-07-20T01:06:39.508Z,0.00
2023-07-20T01:07:42.586Z,0.00
2023-07-20T01:08:45.976Z,0.00
2023-07-20T01:09:49.262Z,0.00
2023-07-20T01:10:52.604Z,0.00
2023-07-20T01:11:56.032Z,0.00
2023-07-20T01:12:59.413Z,0.00
2023-07-20T01:14:03.005Z,0.00
2023-07-20T01:15:06.294Z,0.00
2023-07-20T01:16:09.812Z,0.00
2023-07-20T01:17:13.268Z,0.00
2023-07-20T01:18:16.766Z,0.00
2023-07-20T01:19:20.254Z,0.00
2023-07-20T01:20:23.743Z,0.00
2023-07-20T01:21:27.634Z,0.00
2023-07-20T01:22:31.261Z,0.00
2023-07-20T01:23:34.780Z,0.00
2023-07-20T01:24:38.356Z,0.00
2023-07-20T01:25:41.796Z,0.00
2023-07-20T01:26:45.493Z,0.00
2023-07-20T01:27:49.080Z,0.00
2023-07-20T01:28:52.367Z,0.00
2023-07-20T01:29:55.674Z,0.00
2023-07-20T01:30:59.078Z,0.00
2023-07-20T01:32:02.552Z,0.00
2023-07-20T01:33:05.848Z,0.00
2023-07-20T01:34:08.776Z,0.00
2023-07-20T01:35:12.019Z,0.00
2023-07-20T01:36:15.220Z,0.00
2023-07-20T01:37:18.295Z,0.00
2023-07-20T01:38:21.719Z,0.00
2023-07-20T01:39:25.112Z,0.00
2023-07-20T01:40:28.619Z,0.00
2023-07-20T01:41:32.090Z,0.00
2023-07-20T01:42:35.248Z,0.00
2023-07-20T01:43:38.518Z,0.00
2023-07-20T01:44:42.002Z,0.00
2023-07-20T01:45:45.428Z,0.00
2023-07-20T01:46:48.792Z,0.00
2023-07-20T01:47:52.103Z,0.00
2023-07-20T01:48:55.526Z,0.00
2023-07-20T01:49:58.901Z,0.00
2023-07-20T01:51:02.305Z,0.00
2023-07-20T01:52:05.751Z,0.00
2023-07-20T01:53:09.048Z,0.00
2023-07-20T01:54:12.527Z,0.00
2023-07-20T01:55:15.988Z,0.00
2023-07-20T01:56:19.335Z,0.00
2023-07-20T01:57:22.776Z,0.00
2023-07-20T01:58:26.154Z,0.00
2023-07-20T01:59:29.325Z,0.00
2023-07-20T02:00:32.958Z,0.00
2023-07-20T02:01:36.917Z,0.00
2023-07-20T02:02:40.598Z,0.00
2023-07-20T02:03:44.298Z,0.00
2023-07-20T02:04:47.649Z,0.00
2023-07-20T02:05:51.402Z,0.00
2023-07-20T02:06:54.916Z,0.00
2023-07-20T02:07:58.521Z,0.00
2023-07-20T02:09:02.099Z,0.00
2023-07-20T02:10:05.894Z,0.00
2023-07-20T02:11:09.694Z,0.00
2023-07-20T02:12:13.487Z,0.00
2023-07-20T02:13:17.172Z,0.00
2023-07-20T02:14:20.740Z,0.00
2023-07-20T02:15:24.357Z,0.00
2023-07-20T02:16:27.726Z,0.00
2023-07-20T02:17:31.804Z,0.00
2023-07-20T02:18:35.533Z,0.00
2023-07-20T02:19:39.439Z,0.00
2023-07-20T02:20:43.558Z,0.00
2023-07-20T02:21:47.237Z,0.00
2023-07-20T02:22:51.167Z,0.00
2023-07-20T02:23:55.035Z,0.00
2023-07-20T02:24:58.732Z,0.00
2023-07-20T02:26:02.377Z,0.00
2023-07-20T02:27:06.002Z,0.00
2023-07-20T02:28:09.604Z,0.00
2023-07-20T02:29:13.194Z,0.00
2023-07-20T02:30:16.988Z,0.00
2023-07-20T02:31:20.715Z,0.00
2023-07-20T02:32:24.478Z,0.00
2023-07-20T02:33:28.377Z,0.00
2023-07-20T02:34:31.981Z,0.00
2023-07-20T02:35:35.971Z,0.00
2023-07-20T02:36:39.972Z,0.00
2023-07-20T02:37:43.471Z,0.00
2023-07-20T02:38:47.254Z,0.00
2023-07-20T02:39:53.933Z,0.00
2023-07-20T02:40:57.631Z,0.00
2023-07-20T02:42:01.370Z,0.00
2023-07-20T02:43:05.009Z,0.00
2023-07-20T02:44:08.298Z,0.00
2023-07-20T02:45:11.765Z,0.00
2023-07-20T02:46:15.224Z,0.00
2023-07-20T02:47:18.456Z,0.00
2023-07-20T02:48:22.051Z,0.00
2023-07-20T02:49:25.421Z,0.00
2023-07-20T02:50:28.812Z,0.00
2023-07-20T02:51:32.200Z,0.00
2023-07-20T02:52:35.485Z,0.00
2023-07-20T02:53:38.824Z,0.00
2023-07-20T02:54:42.156Z,0.00
2023-07-20T02:55:45.393Z,0.00
2023-07-20T02:56:48.617Z,0.00
2023-07-20T02:57:51.901Z,0.00
2023-07-20T02:58:55.561Z,0.00
2023-07-20T02:59:59.289Z,0.00
2023-07-20T03:01:03.063Z,0.00
2023-07-20T03:02:06.781Z,0.00
2023-07-20T03:03:10.397Z,0.00
2023-07-20T03:04:14.520Z,0.00
2023-07-20T03:05:18.179Z,0.00
2023-07-20T03:06:22.013Z,0.00
2023-07-20T03:07:25.861Z,0.00
2023-07-20T03:08:29.356Z,0.00
2023-07-20T03:09:32.944Z,0.00
2023-07-20T03:10:36.436Z,0.00
2023-07-20T03:11:40.057Z,0.00
2023-07-20T03:12:43.492Z,0.00
2023-07-20T03:13:47.123Z,0.00
2023-07-20T03:14:50.806Z,0.00
2023-07-20T03:15:54.509Z,0.00
2023-07-20T03:16:57.959Z,0.00
2023-07-20T03:18:01.746Z,0.00
2023-07-20T03:19:05.574Z,0.00
2023-07-20T03:20:09.374Z,0.00
2023-07-20T03:21:12.971Z,0.00
2023-07-20T03:22:16.756Z,0.00
2023-07-20T03:23:20.822Z,0.00
2023-07-20T03:24:24.443Z,0.00
2023-07-20T03:25:29.018Z,0.00
2023-07-20T03:26:32.538Z,0.00
2023-07-20T03:27:36.147Z,0.00
2023-07-20T03:28:39.642Z,0.00
2023-07-20T03:29:43.127Z,0.00
2023-07-20T03:30:46.542Z,0.00
2023-07-20T03:31:50.283Z,0.00
2023-07-20T03:32:53.724Z,0.00
2023-07-20T03:33:57.263Z,0.00
2023-07-20T03:35:00.637Z,0.00
2023-07-20T03:36:04.401Z,0.00
2023-07-20T03:37:07.729Z,0.00
2023-07-20T03:38:11.323Z,0.00
2023-07-20T03:39:15.040Z,0.00
2023-07-20T03:40:18.642Z,0.00
2023-07-20T03:41:22.127Z,0.00
2023-07-20T03:42:25.924Z,0.00
2023-07-20T03:43:29.444Z,0.00
2023-07-20T03:44:32.996Z,0.00
2023-07-20T03:45:36.562Z,0.00
2023-07-20T03:46:40.203Z,0.00
2023-07-20T03:47:43.695Z,0.00
2023-07-20T03:48:47.311Z,0.00
2023-07-20T03:49:50.782Z,0.00
2023-07-20T03:50:54.406Z,0.00
2023-07-20T03:51:57.939Z,0.00
2023-07-20T03:53:01.412Z,0.00
2023-07-20T03:54:05.120Z,0.00
2023-07-20T03:55:09.013Z,0.00
2023-07-20T03:56:12.810Z,0.00
2023-07-20T03:57:16.413Z,0.00
2023-07-20T03:58:19.992Z,0.00
2023-07-20T03:59:23.549Z,0.00
2023-07-20T04:00:27.033Z,0.00
2023-07-20T04:01:30.465Z,0.00
2023-07-20T04:02:34.161Z,0.00
2023-07-20T04:03:38.128Z,0.00
2023-07-20T04:04:41.748Z,0.00
2023-07-20T04:05:45.441Z,0.00
2023-07-20T04:06:48.728Z,0.00
2023-07-20T04:07:52.333Z,0.00
2023-07-20T04:08:55.910Z,0.00
2023-07-20T04:09:59.403Z,0.00
2023-07-20T04:11:02.802Z,0.00
2023-07-20T04:12:05.929Z,0.00
2023-07-20T04:13:09.231Z,0.00
2023-07-20T04:14:12.531Z,0.00
2023-07-20T04:15:15.828Z,0.00
2023-07-20T04:16:19.047Z,0.00
2023-07-20T04:17:22.326Z,0.00
2023-07-20T04:18:25.779Z,0.00
2023-07-20T04:19:29.056Z,0.00
2023-07-20T04:20:32.648Z,0.00
2023-07-20T04:21:36.341Z,0.00
2023-07-20T04:22:39.969Z,0.00
2023-07-20T04:23:43.484Z,0.00
2023-07-20T04:24:47.117Z,0.00
2023-07-20T04:25:50.770Z,0.00
2023-07-20T04:26:54.299Z,0.00
2023-07-20T04:27:57.891Z,0.00
2023-07-20T04:29:01.578Z,0.00
2023-07-20T04:30:05.286Z,0.00
2023-07-20T04:31:09.054Z,0.00
2023-07-20T04:32:12.768Z,0.00
2023-07-20T04:33:16.360Z,0.00
2023-07-20T04:34:19.954Z,0.00
2023-07-20T04:35:23.748Z,0.00
2023-07-20T04:36:27.442Z,0.00
2023-07-20T04:37:31.022Z,0.00
2023-07-20T04:38:34.423Z,0.00
2023-07-20T04:39:38.030Z,0.00
2023-07-20T04:40:41.812Z,0.00
2023-07-20T04:41:45.540Z,0.00
2023-07-20T04:42:49.092Z,0.00
2023-07-20T04:43:52.369Z,0.00
2023-07-20T04:44:55.876Z,0.00
2023-07-20T04:45:59.730Z,0.00
2023-07-20T04:47:03.398Z,0.00
2023-07-20T04:48:06.662Z,0.00
2023-07-20T04:49:10.028Z,0.00
2023-07-20T04:50:13.334Z,0.00
2023-07-20T04:51:16.702Z,0.00
2023-07-20T04:52:19.902Z,0.00
2023-07-20T04:53:23.165Z,0.00
2023-07-20T04:54:26.369Z,0.00
2023-07-20T04:55:29.749Z,0.00
2023-07-20T04:56:33.227Z,0.00
2023-07-20T04:57:36.409Z,0.00
2023-07-20T04:58:39.793Z,0.00
2023-07-20T04:59:43.185Z,0.00
2023-07-20T05:00:46.561Z,0.00
2023-07-20T05:01:50.217Z,0.00
2023-07-20T05:02:53.693Z,0.00
2023-07-20T05:03:57.323Z,0.00
2023-07-20T05:05:00.634Z,0.00
2023-07-20T05:06:03.811Z,0.00
2023-07-20T05:07:07.402Z,0.00
2023-07-20T05:08:11.088Z,0.00
2023-07-20T05:09:14.478Z,0.00
2023-07-20T05:10:17.658Z,0.00
2023-07-20T05:11:21.053Z,0.00
2023-07-20T05:12:24.638Z,0.00
2023-07-20T05:13:27.922Z,0.00
2023-07-20T05:14:31.717Z,0.00
2023-07-20T05:15:34.899Z,0.00
2023-07-20T05:16:38.155Z,0.00
2023-07-20T05:17:41.258Z,0.00
2023-07-20T05:18:44.651Z,0.00
2023-07-20T05:19:48.141Z,0.00
2023-07-20T05:20:51.531Z,0.00
2023-07-20T05:21:54.925Z,0.00
2023-07-20T05:22:58.248Z,0.00
2023-07-20T05:24:01.435Z,0.00
2023-07-20T05:25:04.794Z,0.00
2023-07-20T05:26:08.157Z,0.00
2023-07-20T05:27:11.434Z,0.00
2023-07-20T05:28:14.828Z,0.00
2023-07-20T05:29:18.109Z,0.00
2023-07-20T05:30:21.696Z,0.00
2023-07-20T05:31:25.146Z,0.00
2023-07-20T05:32:28.700Z,0.00
2023-07-20T05:33:32.062Z,0.00
2023-07-20T05:34:35.691Z,0.00
2023-07-20T05:35:39.040Z,0.00
2023-07-20T05:36:42.332Z,0.00
2023-07-20T05:37:45.820Z,0.00
2023-07-20T05:38:49.200Z,0.00
2023-07-20T05:39:52.596Z,0.00
2023-07-20T05:40:56.181Z,0.00
2023-07-20T05:41:59.668Z,0.00
2023-07-20T05:43:02.966Z,0.00
2023-07-20T05:44:06.336Z,0.00
2023-07-20T05:45:09.642Z,0.00
2023-07-20T05:46:12.978Z,0.00
2023-07-20T05:47:16.302Z,0.00
2023-07-20T05:48:19.885Z,0.00
2023-07-20T05:49:23.377Z,0.00
2023-07-20T05:50:26.758Z,0.00
2023-07-20T05:51:30.146Z,0.00
2023-07-20T05:52:33.578Z,0.00
2023-07-20T05:53:37.123Z,0.00
2023-07-20T05:54:40.717Z,0.00
2023-07-20T05:55:44.108Z,0.00
2023-07-20T05:56:48.589Z,0.00
2023-07-20T05:57:52.103Z,0.00
2023-07-20T05:58:55.638Z,0.00
2023-07-20T05:59:59.100Z,0.00
2023-07-20T06:01:02.622Z,0.00
2023-07-20T06:02:06.276Z,0.00
2023-07-20T06:03:10.108Z,0.00
2023-07-20T06:04:13.579Z,0.00
2023-07-20T06:05:17.473Z,0.00
2023-07-20T06:06:21.466Z,0.00
2023-07-20T06:07:25.134Z,0.00
2023-07-20T06:08:28.821Z,0.00
2023-07-20T06:09:32.214Z,0.00
2023-07-20T06:10:35.690Z,0.00
2023-07-20T06:11:39.307Z,0.00
2023-07-20T06:12:42.921Z,0.00
2023-07-20T06:13:49.389Z,0.00
2023-07-20T06:14:51.253Z,0.00
2023-07-20T06:15:54.864Z,0.00
2023-07-20T06:16:58.472Z,0.00
2023-07-20T06:18:02.524Z,0.00
2023-07-20T06:19:06.288Z,0.00
2023-07-20T06:20:09.683Z,0.00
2023-07-20T06:21:12.848Z,0.00
2023-07-20T06:22:16.246Z,0.00
2023-07-20T06:23:19.653Z,0.00
2023-07-20T06:24:23.022Z,0.00
2023-07-20T06:25:26.395Z,0.00
2023-07-20T06:26:29.694Z,0.00
2023-07-20T06:27:32.857Z,0.00
2023-07-20T06:28:36.041Z,0.00
2023-07-20T06:29:39.233Z,0.00
2023-07-20T06:30:42.517Z,0.00
2023-07-20T06:31:45.730Z,0.00
2023-07-20T06:32:49.138Z,0.00
2023-07-20T06:33:52.364Z,0.00
2023-07-20T06:34:55.864Z,0.00
2023-07-20T06:35:59.347Z,0.00
2023-07-20T06:37:02.456Z,0.00
2023-07-20T06:42:23.661Z,0.00
2023-07-20T06:44:31.660Z,0.00
2023-07-20T06:45:35.094Z,0.00
2023-07-20T06:46:38.436Z,0.00
2023-07-20T06:47:41.771Z,0.00
2023-07-20T06:49:49.496Z,0.00
2023-07-20T06:50:53.043Z,0.00
2023-07-20T06:51:56.622Z,0.00
2023-07-20T06:52:59.988Z,0.00
2023-07-20T06:54:03.268Z,0.00
2023-07-20T06:55:06.575Z,0.00
2023-07-20T06:56:10.278Z,0.00
2023-07-20T06:58:18.563Z,0.00
2023-07-20T06:59:22.053Z,0.00
2023-07-20T07:00:25.854Z,0.00
2023-07-20T07:01:29.294Z,0.00
2023-07-20T07:02:32.960Z,0.00
2023-07-20T07:03:36.309Z,0.00
2023-07-20T07:04:40.018Z,0.00
2023-07-20T07:05:43.504Z,0.00
2023-07-20T07:06:46.735Z,0.00
2023-07-20T07:07:50.208Z,0.00
2023-07-20T07:08:53.531Z,0.00
2023-07-20T07:09:57.437Z,0.00
2023-07-20T07:11:00.653Z,0.00
2023-07-20T07:12:04.096Z,0.00
2023-07-20T07:13:07.643Z,0.00
2023-07-20T07:14:11.416Z,0.00
2023-07-20T07:15:15.224Z,0.00
2023-07-20T07:16:20.568Z,0.00
2023-07-20T07:17:23.569Z,0.00
2023-07-20T07:18:27.242Z,0.00
2023-07-20T07:19:30.920Z,0.00
2023-07-20T07:20:34.300Z,0.00
2023-07-20T07:21:37.857Z,0.00
2023-07-20T07:22:46.306Z,0.00
2023-07-20T07:23:45.731Z,0.00
2023-07-20T07:24:48.968Z,0.00
2023-07-20T07:25:52.568Z,0.00
2023-07-20T07:26:56.043Z,0.00
2023-07-20T07:27:59.534Z,0.00
2023-07-20T07:29:03.046Z,0.00
2023-07-20T07:30:06.201Z,0.00
2023-07-20T07:31:09.697Z,0.00
2023-07-20T07:32:12.912Z,0.00
2023-07-20T07:33:16.059Z,0.00
2023-07-20T07:34:19.339Z,0.00
2023-07-20T07:35:22.954Z,0.00
2023-07-20T07:36:26.425Z,0.00
2023-07-20T07:37:31.412Z,0.00
2023-07-20T07:39:07.405Z,0.00
2023-07-20T07:39:38.942Z,0.00
2023-07-20T07:40:42.529Z,0.00
2023-07-20T07:41:46.024Z,0.00
2023-07-20T07:42:49.603Z,0.00
2023-07-20T07:43:53.450Z,0.00
2023-07-20T07:44:56.892Z,0.00
2023-07-20T07:46:00.275Z,0.00
2023-07-20T07:47:03.874Z,0.00
2023-07-20T07:48:07.616Z,0.00
2023-07-20T07:49:11.267Z,0.00
2023-07-20T07:50:15.055Z,0.00
2023-07-20T07:51:18.546Z,0.00
2023-07-20T07:52:22.748Z,0.00
2023-07-20T07:53:26.271Z,0.00
2023-07-20T07:54:29.940Z,0.00
2023-07-20T07:55:33.638Z,0.00
2023-07-20T07:56:37.116Z,0.00
2023-07-20T07:57:40.616Z,0.00
2023-07-20T07:58:44.198Z,0.00
2023-07-20T07:59:47.817Z,0.00
2023-07-20T08:00:51.615Z,0.00
2023-07-20T08:01:55.276Z,0.00
2023-07-20T08:02:59.124Z,0.00
2023-07-20T08:04:03.014Z,0.00
2023-07-20T08:05:06.668Z,0.00
2023-07-20T08:06:10.367Z,0.50
2023-07-20T08:07:14.060Z,0.57
2023-07-20T08:08:17.746Z,0.00
2023-07-20T08:09:21.447Z,1.00
2023-07-20T08:10:25.206Z,1.00
2023-07-20T08:11:28.736Z,0.13
2023-07-20T08:12:32.315Z,0.00
2023-07-20T08:13:35.711Z,0.00
2023-07-20T08:14:39.193Z,0.00
2023-07-20T08:15:42.484Z,0.00
2023-07-20T08:16:46.155Z,0.00
2023-07-20T08:17:51.194Z,0.00
2023-07-20T08:18:54.923Z,0.00
2023-07-20T08:19:58.698Z,0.00
2023-07-20T08:21:02.292Z,0.00
2023-07-20T08:22:05.870Z,0.00
2023-07-20T08:23:09.424Z,0.00
2023-07-20T08:24:12.687Z,0.00
2023-07-20T08:25:15.799Z,0.00
2023-07-20T08:26:19.172Z,0.00
2023-07-20T08:27:22.264Z,0.00
2023-07-20T08:28:25.474Z,0.00
2023-07-20T08:29:28.755Z,0.00
2023-07-20T08:30:32.039Z,0.00
2023-07-20T08:31:35.331Z,0.00
2023-07-20T08:32:38.669Z,0.00
2023-07-20T08:33:41.895Z,0.00
2023-07-20T08:34:45.285Z,0.00
2023-07-20T08:35:48.478Z,0.00
2023-07-20T08:36:51.747Z,0.00
2023-07-20T08:37:56.999Z,0.00
2023-07-20T08:38:59.745Z,0.00
2023-07-20T08:40:03.153Z,0.00
2023-07-20T08:41:06.728Z,0.00
2023-07-20T08:42:10.324Z,0.00
2023-07-20T08:43:13.711Z,0.00
2023-07-20T08:44:17.092Z,0.00
2023-07-20T08:45:20.474Z,0.00
2023-07-20T08:46:23.971Z,0.00
2023-07-20T08:47:27.501Z,0.00
2023-07-20T08:48:30.953Z,0.00
2023-07-20T08:49:34.186Z,0.00
2023-07-20T08:50:37.621Z,0.00
2023-07-20T08:51:40.910Z,0.00
2023-07-20T08:52:44.187Z,0.00
2023-07-20T08:53:47.380Z,0.00
2023-07-20T08:54:50.819Z,0.43
2023-07-20T08:55:54.255Z,0.00
2023-07-20T08:57:06.244Z,0.00
2023-07-20T08:58:09.614Z,0.00
2023-07-20T08:59:13.011Z,0.00
2023-07-20T09:00:16.154Z,0.00
2023-07-20T09:01:19.619Z,0.00
2023-07-20T09:02:23.348Z,0.00
2023-07-20T09:03:27.013Z,0.00
2023-07-20T09:04:30.530Z,0.00
2023-07-20T09:05:34.277Z,0.00
2023-07-20T09:06:37.735Z,0.43
2023-07-20T09:10:19.999Z,0.13
2023-07-20T09:11:23.310Z,0.25
2023-07-20T09:14:04.095Z,0.00
2023-07-20T09:15:07.796Z,0.50
2023-07-20T09:16:11.788Z,1.00
2023-07-20T09:17:17.475Z,0.50
2023-07-20T09:18:20.378Z,1.00
2023-07-20T09:19:24.027Z,1.00
2023-07-20T09:20:27.601Z,1.00
2023-07-20T09:21:31.083Z,1.00
2023-07-20T09:22:34.779Z,1.00
2023-07-20T09:23:38.391Z,1.00
2023-07-20T09:24:41.752Z,1.00
2023-07-20T09:25:45.145Z,1.00
2023-07-20T09:26:48.709Z,1.00
2023-07-20T09:27:55.094Z,1.00
2023-07-20T09:28:59.181Z,1.00
2023-07-20T09:30:06.116Z,1.00
2023-07-20T09:32:24.517Z,1.50
2023-07-20T09:33:27.174Z,2.00
2023-07-20T09:35:33.146Z,2.87
2023-07-20T09:37:35.020Z,4.37
2023-07-20T09:39:05.018Z,2.57
2023-07-20T09:40:15.724Z,2.00
2023-07-20T09:42:34.412Z,2.00
2023-07-20T09:44:01.847Z,1.50
2023-07-20T09:45:05.567Z,1.50
2023-07-20T09:46:08.845Z,2.00
2023-07-20T09:47:12.230Z,2.00
2023-07-20T09:50:26.636Z,2.50
2023-07-20T09:51:28.750Z,2.50
2023-07-20T09:53:36.543Z,3.00
2023-07-20T09:54:39.733Z,2.43
2023-07-20T09:55:43.041Z,2.29
2023-07-20T09:56:46.302Z,2.57
2023-07-20T09:57:52.249Z,2.00
2023-07-20T09:58:55.693Z,2.00
2023-07-20T10:01:03.736Z,1.62
2023-07-20T10:02:07.341Z,2.00
2023-07-20T10:03:10.943Z,2.57
2023-07-20T10:04:14.617Z,2.00
2023-07-20T10:05:18.499Z,2.00
2023-07-20T10:06:22.361Z,2.00
2023-07-20T10:07:26.615Z,2.00
2023-07-20T10:09:34.256Z,1.12
2023-07-20T10:10:38.111Z,2.00
2023-07-20T10:11:43.080Z,2.00
2023-07-20T10:12:49.130Z,1.50
2023-07-20T10:13:50.713Z,1.50
2023-07-20T10:14:54.238Z,1.57
2023-07-20T10:15:57.746Z,1.43
2023-07-20T10:17:01.514Z,2.00
2023-07-20T10:18:06.884Z,2.57
2023-07-20T10:20:14.213Z,2.00
2023-07-20T10:22:22.321Z,1.50
2023-07-20T10:23:25.727Z,1.50
2023-07-20T10:24:29.348Z,1.86
2023-07-20T10:25:32.994Z,1.57
2023-07-20T10:26:38.012Z,1.00
2023-07-20T10:27:41.407Z,1.00
2023-07-20T10:28:44.674Z,1.00
2023-07-20T10:29:50.758Z,1.43
2023-07-20T10:30:54.024Z,1.75
2023-07-20T10:31:57.268Z,1.57
2023-07-20T10:33:00.504Z,1.00
2023-07-20T10:34:03.979Z,1.00
2023-07-20T10:35:07.262Z,1.00
2023-07-20T10:36:10.443Z,0.57
2023-07-20T10:37:14.831Z,0.71
2023-07-20T10:38:18.153Z,1.00
2023-07-20T10:39:21.440Z,0.57
2023-07-20T10:40:24.709Z,0.57
2023-07-20T10:41:27.994Z,0.57
2023-07-20T10:42:31.080Z,0.43
2023-07-20T10:43:34.352Z,1.00
2023-07-20T10:44:37.658Z,1.00
2023-07-20T10:45:43.993Z,1.00
2023-07-20T10:46:47.467Z,1.00
2023-07-20T10:47:53.330Z,1.00
2023-07-20T10:48:56.518Z,1.00
2023-07-20T10:49:59.816Z,1.00
2023-07-20T10:51:03.106Z,1.00
2023-07-20T10:52:06.485Z,1.33
2023-07-20T10:53:13.156Z,1.14
2023-07-20T10:54:16.844Z,1.00
2023-07-20T10:55:20.516Z,1.50
2023-07-20T10:56:24.162Z,1.00
2023-07-20T10:57:27.621Z,1.00
2023-07-20T10:58:30.969Z,1.00
2023-07-20T10:59:34.387Z,1.33
2023-07-20T11:00:37.924Z,1.57
2023-07-20T11:01:41.500Z,1.00
2023-07-20T11:02:45.025Z,1.43
2023-07-20T11:03:48.467Z,1.57
2023-07-20T11:04:52.051Z,1.00
2023-07-20T11:05:55.934Z,1.50
2023-07-20T11:07:00.762Z,1.57
2023-07-20T11:08:05.835Z,1.00
2023-07-20T11:09:09.537Z,1.50
2023-07-20T11:10:13.561Z,1.75
2023-07-20T11:11:17.150Z,2.00
2023-07-20T11:12:20.845Z,2.43
2023-07-20T11:13:24.487Z,3.50
2023-07-20T11:14:27.720Z,3.57
2023-07-20T11:15:31.005Z,3.00
2023-07-20T11:16:34.234Z,3.00
2023-07-20T11:17:37.497Z,3.00
2023-07-20T11:18:40.817Z,3.43
2023-07-20T11:20:48.960Z,3.50
2023-07-20T11:22:01.604Z,3.67
2023-07-20T11:22:56.858Z,3.00
2023-07-20T11:24:00.264Z,3.00
2023-07-20T11:25:03.672Z,3.43
2023-07-20T11:26:06.930Z,4.00
2023-07-20T11:27:10.214Z,4.43
2023-07-20T11:28:13.796Z,4.29
2023-07-20T11:29:29.382Z,4.00
2023-07-20T11:30:21.799Z,4.00
2023-07-20T11:31:25.464Z,3.71
2023-07-20T11:32:29.253Z,3.75
2023-07-20T11:33:32.687Z,4.00
2023-07-20T11:34:36.188Z,4.00
2023-07-20T11:35:39.655Z,4.00
2023-07-20T11:37:47.675Z,3.25
2023-07-20T11:38:51.250Z,3.00
2023-07-20T11:39:54.945Z,3.43
2023-07-20T11:40:58.632Z,3.50
2023-07-20T11:42:02.019Z,3.00
2023-07-20T11:44:10.474Z,3.12
2023-07-20T11:45:14.023Z,3.00
2023-07-20T11:46:18.656Z,3.00
2023-07-20T11:47:22.262Z,3.43
2023-07-20T11:48:29.004Z,3.57
2023-07-20T11:49:34.989Z,3.00
2023-07-20T11:50:37.111Z,2.62
2023-07-20T11:51:40.532Z,3.43
2023-07-20T11:52:44.001Z,4.00
2023-07-20T11:53:47.492Z,4.00
2023-07-20T11:54:51.127Z,3.43
2023-07-20T11:55:54.661Z,3.29
2023-07-20T11:56:58.036Z,3.14
2023-07-20T11:58:01.426Z,3.00
2023-07-20T11:59:04.911Z,3.43
2023-07-20T12:00:08.606Z,4.00
2023-07-20T12:01:11.991Z,3.00
2023-07-20T12:02:15.588Z,3.00
2023-07-20T12:03:19.097Z,3.43
2023-07-20T12:04:22.616Z,3.43
2023-07-20T12:05:26.061Z,3.00
2023-07-20T12:06:30.213Z,3.43
2023-07-20T12:07:34.156Z,3.50
2023-07-20T12:08:37.648Z,3.00
2023-07-20T12:09:50.420Z,3.17
2023-07-20T12:10:45.654Z,3.50
2023-07-20T12:11:49.340Z,4.00
2023-07-20T12:12:52.831Z,3.57
2023-07-20T12:14:04.261Z,3.57
2023-07-20T12:15:01.159Z,3.25
2023-07-20T12:16:04.872Z,3.43
2023-07-20T12:17:08.601Z,2.87
2023-07-20T12:18:12.304Z,3.00
2023-07-20T12:19:16.036Z,3.50
2023-07-20T12:20:19.607Z,3.00
2023-07-20T12:21:23.201Z,3.43
2023-07-20T12:22:26.602Z,3.43
2023-07-20T12:23:31.723Z,3.00
2023-07-20T12:24:34.783Z,3.00
2023-07-20T12:25:38.301Z,3.00
2023-07-20T12:26:41.878Z,3.43
2023-07-20T12:27:45.393Z,3.50
2023-07-20T12:28:48.856Z,3.43
2023-07-20T12:29:52.560Z,3.43
2023-07-20T12:30:56.040Z,3.00
2023-07-20T12:31:59.580Z,3.14
2023-07-20T12:33:03.109Z,3.71
2023-07-20T12:34:06.260Z,3.57
2023-07-20T12:35:09.992Z,3.43
2023-07-20T12:36:13.249Z,3.57
2023-07-20T12:37:16.459Z,3.43
2023-07-20T12:38:19.845Z,3.57
2023-07-20T12:39:23.146Z,3.29
2023-07-20T12:40:26.413Z,2.57
2023-07-20T12:41:29.796Z,2.57
2023-07-20T12:42:33.090Z,2.00
2023-07-20T12:43:36.274Z,2.00
2023-07-20T12:44:40.115Z,2.17
2023-07-20T12:45:43.664Z,2.00
2023-07-20T12:46:47.037Z,2.00
2023-07-20T12:47:50.637Z,2.00
2023-07-20T12:48:54.118Z,2.00
2023-07-20T12:49:57.432Z,2.00
2023-07-20T12:51:01.097Z,2.00
2023-07-20T12:52:04.600Z,2.00
2023-07-20T12:53:07.892Z,2.00
2023-07-20T12:54:14.466Z,2.00
2023-07-20T12:55:17.824Z,1.62
2023-07-20T12:57:25.614Z,2.00
2023-07-20T12:58:28.901Z,2.00
2023-07-20T12:59:32.196Z,2.00
2023-07-20T13:00:35.569Z,1.57
2023-07-20T13:01:38.977Z,1.00
2023-07-20T13:02:42.389Z,1.57
2023-07-20T13:04:49.936Z,1.00
2023-07-20T13:06:57.764Z,1.00
2023-07-20T13:09:05.350Z,1.00
2023-07-20T13:10:08.841Z,1.50
2023-07-20T13:11:12.213Z,1.33
2023-07-20T13:12:15.411Z,2.00
2023-07-20T13:13:18.705Z,2.00
2023-07-20T13:14:22.060Z,1.71
2023-07-20T13:15:25.237Z,2.00
2023-07-20T13:16:28.559Z,2.00
2023-07-20T13:17:32.082Z,1.86
2023-07-20T13:18:36.206Z,1.57
2023-07-20T13:19:39.712Z,2.00
2023-07-20T13:20:43.106Z,2.00
2023-07-20T13:21:46.282Z,2.00
2023-07-20T13:22:49.566Z,1.57
2023-07-20T13:23:52.833Z,1.86
2023-07-20T13:24:56.027Z,2.00
2023-07-20T13:25:59.207Z,1.86
2023-07-20T13:27:02.479Z,2.00
2023-07-20T13:28:05.567Z,1.67
2023-07-20T13:29:08.755Z,1.57
2023-07-20T13:30:11.933Z,1.29
2023-07-20T13:31:16.014Z,1.00
2023-07-20T13:32:19.360Z,1.29
2023-07-20T13:33:22.550Z,1.43
2023-07-20T13:34:29.728Z,1.57
2023-07-20T13:35:48.975Z,1.00
2023-07-20T13:36:36.846Z,1.00
2023-07-20T13:37:38.839Z,1.00
2023-07-20T13:38:42.102Z,1.00
2023-07-20T13:39:45.381Z,1.00
2023-07-20T13:40:48.780Z,1.43
2023-07-20T13:41:51.828Z,1.57
2023-07-20T13:42:55.030Z,1.00
2023-07-20T13:43:58.515Z,1.00
2023-07-20T13:45:02.009Z,1.00
2023-07-20T13:46:05.308Z,1.00
2023-07-20T13:48:13.363Z,1.00
2023-07-20T13:51:28.115Z,1.50
2023-07-20T13:54:47.504Z,2.00
2023-07-20T13:56:47.107Z,2.00
2023-07-20T13:57:50.434Z,2.00
2023-07-20T13:58:53.614Z,2.00
2023-07-20T13:59:56.948Z,2.00
2023-07-20T14:01:00.208Z,2.00
2023-07-20T14:04:12.319Z,1.00
2023-07-20T14:06:21.768Z,1.50
2023-07-20T14:07:24.535Z,1.12
2023-07-20T14:08:27.762Z,1.00
2023-07-20T14:09:30.982Z,1.00
2023-07-20T14:10:34.233Z,1.00
2023-07-20T14:12:42.054Z,0.00
2023-07-20T14:13:47.934Z,0.43
2023-07-20T14:14:49.733Z,0.62
2023-07-20T14:15:52.904Z,0.00
2023-07-20T14:16:56.021Z,0.33
2023-07-20T14:17:59.760Z,0.57
2023-07-20T14:19:04.461Z,0.00
2023-07-20T14:20:21.597Z,0.00
2023-07-20T14:21:11.622Z,0.00
2023-07-20T14:22:14.687Z,0.00
2023-07-20T14:23:17.731Z,0.00
2023-07-20T14:24:20.973Z,0.00
2023-07-20T14:25:24.223Z,0.00
2023-07-20T14:26:27.649Z,0.00
2023-07-20T14:27:31.294Z,0.00
2023-07-20T14:28:34.496Z,0.00
2023-07-20T14:29:37.873Z,0.00
2023-07-20T14:30:40.917Z,0.00
2023-07-20T14:31:44.171Z,0.00
2023-07-20T14:32:47.480Z,0.00
2023-07-20T14:33:51.454Z,0.00
2023-07-20T14:34:54.873Z,0.00
2023-07-20T14:35:58.020Z,0.00
2023-07-20T14:37:01.187Z,0.00
2023-07-20T14:38:04.445Z,0.00
2023-07-20T14:39:07.674Z,0.00
2023-07-20T14:40:10.912Z,0.00
2023-07-20T14:41:14.090Z,0.00
2023-07-20T14:42:17.276Z,0.00
2023-07-20T14:43:20.364Z,0.00
2023-07-20T14:44:23.439Z,0.00
2023-07-20T14:45:26.502Z,0.00
2023-07-20T14:46:29.980Z,0.00
2023-07-20T14:47:33.704Z,0.00
2023-07-20T14:48:37.132Z,0.00
2023-07-20T14:49:40.282Z,0.00